Flight Track Log - Related Links

Times and Time Zones

All times are in EDT time to prevent confusion due to time zone crossing. See the SWA127 flight status page for this flight to view local times or setup timezone preferences in your user account.

Time Position Orientation Groundspeed Altitude Reporting Facility
EDT Latitude Longitude Course Direction KTS MPH feet Rate Location/Type
Mon 11:40:20 AM 29.6581 -95.2622 130° Southeast 171 197 800  Level Houston Center
Mon 11:41:21 AM 29.6292 -95.2225 130° Southeast 238 274 2,800 2,231 Climbing Houston Center
Mon 11:41:38 AM 29.6150 -95.2219 178° South 234 269 3,700 2,852 Climbing Houston Center
Mon 11:42:22 AM 29.5622 -95.2258 184° South 260 299 5,700 2,226 Climbing Houston Center
Mon 11:42:40 AM 29.5492 -95.2314 200° South 252 290 6,000 2,775 Climbing Houston Center
Mon 11:43:42 AM 29.4789 -95.2700 206° Southwest 278 320 9,400 3,000 Climbing Houston Center
Mon 11:44:44 AM 29.3825 -95.3153 202° Southwest 311 358 12,200 2,516 Climbing Houston Center
Mon 11:45:46 AM 29.2989 -95.3703 210° Southwest 343 395 14,600 2,468 Climbing Houston Center
Mon 11:46:48 AM 29.2136 -95.4375 215° Southwest 366 421 17,300 2,419 Climbing Houston Center
Mon 11:47:50 AM 29.1267 -95.5036 214° Southwest 374 430 19,600 2,016 Climbing Houston Center
Mon 11:48:53 AM 29.0361 -95.5728 214° Southwest 389 448 21,500 1,920 Climbing Houston Center
Mon 11:49:55 AM 28.9436 -95.6436 214° Southwest 398 458 23,600 1,984 Climbing Houston Center
Mon 11:50:57 AM 28.8294 -95.7300 214° Southwest 410 472 25,600 1,645 Climbing Houston Center
Mon 11:51:59 AM 28.7311 -95.8053 214° Southwest 424 488 27,000 1,694 Climbing Houston Center
Mon 11:53:01 AM 28.6339 -95.8800 214° Southwest 422 486 29,100 2,032 Climbing Houston Center
Mon 11:54:03 AM 28.5400 -95.9503 213° Southwest 404 465 31,200 1,742 Climbing Houston Center
Mon 11:55:05 AM 28.4350 -96.0303 214° Southwest 395 455 32,700 1,258 Climbing Houston Center
Mon 11:56:07 AM 28.3414 -96.0992 213° Southwest 398 458 33,800 624 Climbing Houston Center
Mon 11:57:10 AM 28.2511 -96.1697 215° Southwest 395 455 34,000 96 Climbing Houston Center
Mon 11:58:12 AM 28.1589 -96.2392 214° Southwest 396 456 34,000  Level Houston Center
Mon 11:59:14 AM 28.0672 -96.3053 212° Southwest 393 452 34,000  Level Houston Center
Mon 12:00:16 PM 27.9767 -96.3742 214° Southwest 391 450 34,000  Level Houston Center
Mon 12:01:18 PM 27.8678 -96.4553 213° Southwest 390 449 34,000  Level Houston Center
Mon 12:02:20 PM 27.7772 -96.5225 213° Southwest 390 449 34,000  Level Houston Center
Mon 12:03:22 PM 27.6869 -96.5892 213° Southwest 388 447 34,000  Level Houston Center
Mon 12:04:24 PM 27.5978 -96.6556 213° Southwest 386 444 34,000 -1,056 Level Houston Center
Mon 12:05:27 PM 27.5083 -96.7217 213° Southwest 383 441 31,800 -2,160 Descending Houston Center
Mon 12:06:29 PM 27.4189 -96.7867 213° Southwest 383 441 29,500 -2,226 Descending Houston Center
Mon 12:07:31 PM 27.3267 -96.8561 214° Southwest 368 423 27,200 -2,081 Descending Houston Center
Mon 12:08:33 PM 27.2453 -96.9158 213° Southwest 355 409 25,200 -2,032 Descending Houston Center
Mon 12:09:35 PM 27.1625 -96.9767 213° Southwest 354 407 23,000 -2,323 Descending Houston Center
Mon 12:10:37 PM 27.0572 -97.0533 213° Southwest 369 425 20,400 -2,386 Descending Houston Center
Mon 12:11:03 PM 27.0219 -97.0806 215° Southwest 369 425 19,500 -2,032 Descending Houston Center
Mon 12:11:39 PM 26.9750 -97.1142 213° Southwest 360 414 18,300 -1,964 Descending Houston Center
Mon 12:11:58 PM 26.9500 -97.1331 214° Southwest 343 395 17,700 -2,032 Descending Houston Center
Mon 12:12:41 PM 26.8900 -97.1739 211° Southwest 341 392 16,200 -2,000 Descending Houston Center
Mon 12:12:58 PM 26.8700 -97.1911 218° Southwest 324 373 15,700 -1,810 Descending Houston Center
Mon 12:13:44 PM 26.8153 -97.2292 212° Southwest 324 373 14,300 -1,869 Descending Houston Center
Mon 12:13:59 PM 26.7981 -97.2433 216° Southwest 324 373 13,800 -2,032 Descending Houston Center
Mon 12:14:46 PM 26.7308 -97.2900 212° Southwest 334 384 12,200 -1,927 Descending Houston Center
Mon 12:15:48 PM 26.6594 -97.3536 219° Southwest 329 379 10,300 -1,645 Descending Houston Center
Mon 12:16:50 PM 26.5975 -97.4064 217° Southwest 281 323 8,800 -1,742 Descending Houston Center
Mon 12:17:52 PM 26.5336 -97.4622 218° Southwest 270 311 6,700 -1,935 Descending Houston Center
Mon 12:18:54 PM 26.4772 -97.5100 217° Southwest 257 296 4,800 -1,500 Descending Houston Center
Mon 12:19:56 PM 26.4178 -97.5597 217° Southwest 249 287 3,600 -1,104 Descending Houston Center
Mon 12:20:59 PM 26.3669 -97.6047 218° Southwest 237 273 2,500 -877 Descending Houston Center
Mon 12:22:06 PM 26.3144 -97.6486 217° Southwest 195 224 1,700 -803 Descending Houston Center
Mon 12:23:06 PM 26.2733 -97.6586 192° South 141 162 800 -807 Descending Houston Center
Mon 12:24:05 PM 26.2392 -97.6586 180° South 146 168 100 -712 Descending Houston Center
Mon 12:26:00 PM 26.2271 -97.6551 214° Southwest  Level Estimated

Login

Don't have an account? Register now (free) for customized features, flight alerts, and more!